West Lebanon, IN (47991)

8:56 PM EST on March 06, 2015 (GMT -0500)
WX9C | Change Station
CLOSE
Current Station
Personal Weather Station
Location: Covington, IN
Elevation: 617 ft
Nearby Weather Stations

Elev 617 ft 40.13 °N, 87.38 °W | Updated 10 seconds ago

Clear
Clear
23.7 °F
Feels Like 20 °F
N
3.1
Wind Variable Wind from South
Gusts 5.4 mph

Today
High -- | Low -- °F
--% Chance of Precip.
Yesterday
High -- | Low -- °F
Precip. -- in
7:15 AM 6:46 PM
Full, 98% visible
Pressure 30.26 in
Visibility 10.0 miles
Clouds Clear
Windchill 20 °F
Dew Point 6 °F
Humidity 45%
Rainfall in
Snow Depth Not available.
UV 0 out of 12
Pollen .30 out of 12
Air Quality Not available.
Flu Activity Not available.
METAR KDNV 070135Z AUTO 19009G14KT 10SM CLR M06/M11 A3026 RMK AO2 T10591110

More Conditions Fewer Conditions

Pressure 30.26 in
Visibility 10.0 miles
Clouds Clear
Windchill 20 °F
Dew Point 6 °F
Humidity 45%
Rainfall in
Snow Depth Not available.
UV 0 out of 12
Pollen .30 out of 12
Air Quality Not available.
Flu Activity Not available.
METAR KDNV 070135Z AUTO 19009G14KT 10SM CLR M06/M11 A3026 RMK AO2 T10591110

More Conditions Fewer Conditions

10-Day Weather Forecast

Almanac

Astronomy

Mar. 06, 2015 Rise Set
Actual Time
Civil Twilight
Nautical Twilight
Astronomical Twilight
Moon
Length of Visible Light
Length of Day
Tomorrow will be .
, % of the Moon is Illuminated

Today's Extremes

State Highs State Lows

Community

WunderPhotos

Upload Photos

1,803,494 photos uploaded!

WunderBlogs® & News

Nearby

Air Quality

  Air Quality AQ Index Pollutant
Not available.

Snow Depth

Station Depth Elevation

Earthquake Activity

City Distance Mag. Time & Date
Minimum magnitude displayed is 2.5.

Coastal Water Temperatures

Place Temperature

Nearby Weather Stations